sensor_id;sensor_type;location;lat;lon;timestamp;temperature;humidity
13713;DHT22;6928;50.546;7.120;2023-01-13T00:00:57;11.22;83.12
13713;DHT22;6928;50.546;7.120;2023-01-13T00:03:24;11.29;82.86
13713;DHT22;6928;50.546;7.120;2023-01-13T00:05:51;11.35;82.58
13713;DHT22;6928;50.546;7.120;2023-01-13T00:08:18;11.28;82.87
13713;DHT22;6928;50.546;7.120;2023-01-13T00:10:47;11.26;82.88
13713;DHT22;6928;50.546;7.120;2023-01-13T00:13:14;11.30;82.88
13713;DHT22;6928;50.546;7.120;2023-01-13T00:15:41;11.23;83.05
13713;DHT22;6928;50.546;7.120;2023-01-13T00:18:08;11.29;83.03
13713;DHT22;6928;50.546;7.120;2023-01-13T00:20:35;11.25;83.45
13713;DHT22;6928;50.546;7.120;2023-01-13T00:23:02;11.28;83.41
13713;DHT22;6928;50.546;7.120;2023-01-13T00:25:29;11.26;83.30
13713;DHT22;6928;50.546;7.120;2023-01-13T00:27:57;11.26;83.23
13713;DHT22;6928;50.546;7.120;2023-01-13T00:30:24;11.38;82.44
13713;DHT22;6928;50.546;7.120;2023-01-13T00:32:50;11.36;82.75
13713;DHT22;6928;50.546;7.120;2023-01-13T00:35:18;11.40;82.46
13713;DHT22;6928;50.546;7.120;2023-01-13T00:37:45;11.32;82.84
13713;DHT22;6928;50.546;7.120;2023-01-13T00:40:12;11.34;82.76
13713;DHT22;6928;50.546;7.120;2023-01-13T00:42:39;11.28;82.95
13713;DHT22;6928;50.546;7.120;2023-01-13T00:45:25;11.34;82.51
13713;DHT22;6928;50.546;7.120;2023-01-13T00:47:52;11.30;82.72
13713;DHT22;6928;50.546;7.120;2023-01-13T00:50:19;11.32;82.68
13713;DHT22;6928;50.546;7.120;2023-01-13T00:52:46;11.29;82.89
13713;DHT22;6928;50.546;7.120;2023-01-13T00:55:13;11.29;83.09
13713;DHT22;6928;50.546;7.120;2023-01-13T00:57:39;11.34;82.78
13713;DHT22;6928;50.546;7.120;2023-01-13T01:00:08;11.40;82.53
13713;DHT22;6928;50.546;7.120;2023-01-13T01:02:36;11.34;82.64
13713;DHT22;6928;50.546;7.120;2023-01-13T01:05:04;11.29;82.82
13713;DHT22;6928;50.546;7.120;2023-01-13T01:07:31;11.32;82.96
13713;DHT22;6928;50.546;7.120;2023-01-13T01:09:58;11.34;82.80
13713;DHT22;6928;50.546;7.120;2023-01-13T01:12:25;11.35;82.83
13713;DHT22;6928;50.546;7.120;2023-01-13T01:14:52;11.34;82.84
13713;DHT22;6928;50.546;7.120;2023-01-13T01:17:18;11.39;82.72
13713;DHT22;6928;50.546;7.120;2023-01-13T01:19:46;11.38;82.77
13713;DHT22;6928;50.546;7.120;2023-01-13T01:22:13;11.38;82.81
13713;DHT22;6928;50.546;7.120;2023-01-13T01:24:40;11.35;82.91
13713;DHT22;6928;50.546;7.120;2023-01-13T01:27:07;11.36;82.72
13713;DHT22;6928;50.546;7.120;2023-01-13T01:29:34;11.39;82.74
13713;DHT22;6928;50.546;7.120;2023-01-13T01:32:00;11.38;82.81
13713;DHT22;6928;50.546;7.120;2023-01-13T01:34:27;11.42;82.65
13713;DHT22;6928;50.546;7.120;2023-01-13T01:36:55;11.45;82.58
13713;DHT22;6928;50.546;7.120;2023-01-13T01:39:22;11.47;82.59
13713;DHT22;6928;50.546;7.120;2023-01-13T01:41:48;11.42;82.67
13713;DHT22;6928;50.546;7.120;2023-01-13T01:44:59;11.43;82.59
13713;DHT22;6928;50.546;7.120;2023-01-13T01:47:27;11.42;82.80
13713;DHT22;6928;50.546;7.120;2023-01-13T01:49:55;11.43;82.69
13713;DHT22;6928;50.546;7.120;2023-01-13T01:52:28;11.47;82.65
13713;DHT22;6928;50.546;7.120;2023-01-13T01:54:59;11.42;82.84
13713;DHT22;6928;50.546;7.120;2023-01-13T01:57:31;11.47;82.62
13713;DHT22;6928;50.546;7.120;2023-01-13T01:59:59;11.26;84.16
13713;DHT22;6928;50.546;7.120;2023-01-13T02:02:27;10.33;85.81
13713;DHT22;6928;50.546;7.120;2023-01-13T02:04:53;10.02;86.97
13713;DHT22;6928;50.546;7.120;2023-01-13T02:07:25;9.89;87.46
13713;DHT22;6928;50.546;7.120;2023-01-13T02:09:55;9.75;86.96
13713;DHT22;6928;50.546;7.120;2023-01-13T02:12:23;9.78;87.39
13713;DHT22;6928;50.546;7.120;2023-01-13T02:15:00;9.74;87.01
13713;DHT22;6928;50.546;7.120;2023-01-13T02:17:50;9.88;85.16
13713;DHT22;6928;50.546;7.120;2023-01-13T02:20:47;9.91;85.45
13713;DHT22;6928;50.546;7.120;2023-01-13T02:27:21;9.94;84.61
13713;DHT22;6928;50.546;7.120;2023-01-13T02:30:16;9.87;85.77
13713;DHT22;6928;50.546;7.120;2023-01-13T02:33:13;9.87;83.99
13713;DHT22;6928;50.546;7.120;2023-01-13T02:35:50;9.92;83.38
13713;DHT22;6928;50.546;7.120;2023-01-13T02:38:36;9.87;83.74
13713;DHT22;6928;50.546;7.120;2023-01-13T02:41:09;9.91;82.89
13713;DHT22;6928;50.546;7.120;2023-01-13T02:43:57;9.79;83.02
13713;DHT22;6928;50.546;7.120;2023-01-13T02:46:45;9.81;82.06
13713;DHT22;6928;50.546;7.120;2023-01-13T02:49:23;9.81;81.12
13713;DHT22;6928;50.546;7.120;2023-01-13T02:51:55;9.81;80.90
13713;DHT22;6928;50.546;7.120;2023-01-13T02:54:26;9.79;81.64
13713;DHT22;6928;50.546;7.120;2023-01-13T02:56:55;9.71;82.18
13713;DHT22;6928;50.546;7.120;2023-01-13T02:59:23;9.67;82.87
13713;DHT22;6928;50.546;7.120;2023-01-13T03:01:55;9.60;81.93
13713;DHT22;6928;50.546;7.120;2023-01-13T03:04:46;9.58;81.96
13713;DHT22;6928;50.546;7.120;2023-01-13T03:07:36;9.54;81.04
13713;DHT22;6928;50.546;7.120;2023-01-13T03:10:15;9.52;81.61
13713;DHT22;6928;50.546;7.120;2023-01-13T03:12:53;9.54;81.78
13713;DHT22;6928;50.546;7.120;2023-01-13T03:15:33;9.43;82.41
13713;DHT22;6928;50.546;7.120;2023-01-13T03:18:17;9.47;81.73
13713;DHT22;6928;50.546;7.120;2023-01-13T03:20:55;9.39;81.50
13713;DHT22;6928;50.546;7.120;2023-01-13T03:23:31;9.41;81.70
13713;DHT22;6928;50.546;7.120;2023-01-13T03:26:06;9.52;81.56
13713;DHT22;6928;50.546;7.120;2023-01-13T03:28:38;9.41;80.74
13713;DHT22;6928;50.546;7.120;2023-01-13T03:31:10;9.46;81.00
13713;DHT22;6928;50.546;7.120;2023-01-13T03:33:45;9.43;81.70
13713;DHT22;6928;50.546;7.120;2023-01-13T03:36:15;9.37;81.72
13713;DHT22;6928;50.546;7.120;2023-01-13T03:38:46;9.43;81.58
13713;DHT22;6928;50.546;7.120;2023-01-13T03:41:20;9.39;81.40
13713;DHT22;6928;50.546;7.120;2023-01-13T03:43:54;9.46;81.13
13713;DHT22;6928;50.546;7.120;2023-01-13T03:46:45;9.33;80.49
13713;DHT22;6928;50.546;7.120;2023-01-13T03:49:19;9.39;80.16
13713;DHT22;6928;50.546;7.120;2023-01-13T03:51:51;9.41;81.29
13713;DHT22;6928;50.546;7.120;2023-01-13T03:54:22;9.37;81.00
13713;DHT22;6928;50.546;7.120;2023-01-13T03:56:55;9.33;80.49
13713;DHT22;6928;50.546;7.120;2023-01-13T03:59:28;9.39;79.00
13713;DHT22;6928;50.546;7.120;2023-01-13T04:02:01;9.40;79.65
13713;DHT22;6928;50.546;7.120;2023-01-13T04:04:33;9.36;79.63
13713;DHT22;6928;50.546;7.120;2023-01-13T04:07:11;9.22;77.22
13713;DHT22;6928;50.546;7.120;2023-01-13T04:09:48;9.12;78.93
13713;DHT22;6928;50.546;7.120;2023-01-13T04:12:21;9.15;79.34
13713;DHT22;6928;50.546;7.120;2023-01-13T04:14:51;9.15;77.59
13713;DHT22;6928;50.546;7.120;2023-01-13T04:17:20;9.19;77.38
13713;DHT22;6928;50.546;7.120;2023-01-13T04:19:50;9.16;76.67
13713;DHT22;6928;50.546;7.120;2023-01-13T04:22:17;9.13;76.81
13713;DHT22;6928;50.546;7.120;2023-01-13T04:24:43;9.09;76.31
13713;DHT22;6928;50.546;7.120;2023-01-13T04:27:10;9.08;76.84
13713;DHT22;6928;50.546;7.120;2023-01-13T04:29:37;8.99;76.95
13713;DHT22;6928;50.546;7.120;2023-01-13T04:32:04;8.91;77.22
13713;DHT22;6928;50.546;7.120;2023-01-13T04:34:30;8.93;77.63
13713;DHT22;6928;50.546;7.120;2023-01-13T04:36:58;8.92;77.62
13713;DHT22;6928;50.546;7.120;2023-01-13T04:39:25;8.85;77.23
13713;DHT22;6928;50.546;7.120;2023-01-13T04:41:52;8.87;77.27
13713;DHT22;6928;50.546;7.120;2023-01-13T04:44:27;8.82;77.42
13713;DHT22;6928;50.546;7.120;2023-01-13T04:46:55;8.72;77.88
13713;DHT22;6928;50.546;7.120;2023-01-13T04:49:22;8.75;78.14
13713;DHT22;6928;50.546;7.120;2023-01-13T04:51:49;8.72;78.49
13713;DHT22;6928;50.546;7.120;2023-01-13T04:54:17;8.75;77.84
13713;DHT22;6928;50.546;7.120;2023-01-13T04:56:44;8.75;78.36
13713;DHT22;6928;50.546;7.120;2023-01-13T04:59:12;8.72;77.90
13713;DHT22;6928;50.546;7.120;2023-01-13T05:01:40;8.81;77.16
13713;DHT22;6928;50.546;7.120;2023-01-13T05:04:10;8.79;77.42
13713;DHT22;6928;50.546;7.120;2023-01-13T05:06:39;8.76;77.28
13713;DHT22;6928;50.546;7.120;2023-01-13T05:09:06;8.78;77.69
13713;DHT22;6928;50.546;7.120;2023-01-13T05:11:34;8.69;77.28
13713;DHT22;6928;50.546;7.120;2023-01-13T05:14:18;8.69;77.29
13713;DHT22;6928;50.546;7.120;2023-01-13T05:17:02;8.50;78.20
13713;DHT22;6928;50.546;7.120;2023-01-13T05:19:32;8.61;76.97
13713;DHT22;6928;50.546;7.120;2023-01-13T05:22:00;8.60;77.33
13713;DHT22;6928;50.546;7.120;2023-01-13T05:24:44;8.62;76.93
13713;DHT22;6928;50.546;7.120;2023-01-13T05:27:30;8.57;77.70
13713;DHT22;6928;50.546;7.120;2023-01-13T05:29:58;8.51;77.41
13713;DHT22;6928;50.546;7.120;2023-01-13T05:32:25;8.61;77.01
13713;DHT22;6928;50.546;7.120;2023-01-13T05:34:53;8.50;77.24
13713;DHT22;6928;50.546;7.120;2023-01-13T05:37:20;8.48;76.96
13713;DHT22;6928;50.546;7.120;2023-01-13T05:39:47;8.51;76.94
13713;DHT22;6928;50.546;7.120;2023-01-13T05:42:33;8.41;77.15
13713;DHT22;6928;50.546;7.120;2023-01-13T05:45:17;8.41;77.13
13713;DHT22;6928;50.546;7.120;2023-01-13T05:47:44;8.42;76.88
13713;DHT22;6928;50.546;7.120;2023-01-13T05:50:10;8.61;78.03
13713;DHT22;6928;50.546;7.120;2023-01-13T05:52:37;8.44;77.17
13713;DHT22;6928;50.546;7.120;2023-01-13T05:55:05;8.38;77.36
13713;DHT22;6928;50.546;7.120;2023-01-13T05:57:33;8.30;77.68
13713;DHT22;6928;50.546;7.120;2023-01-13T06:00:00;8.44;76.99
13713;DHT22;6928;50.546;7.120;2023-01-13T06:02:27;8.33;77.75
13713;DHT22;6928;50.546;7.120;2023-01-13T06:04:53;8.30;77.59
13713;DHT22;6928;50.546;7.120;2023-01-13T06:07:20;8.29;77.91
13713;DHT22;6928;50.546;7.120;2023-01-13T06:09:47;8.27;78.17
13713;DHT22;6928;50.546;7.120;2023-01-13T06:12:14;8.34;77.65
13713;DHT22;6928;50.546;7.120;2023-01-13T06:14:42;8.33;78.06
13713;DHT22;6928;50.546;7.120;2023-01-13T06:17:11;8.29;78.46
13713;DHT22;6928;50.546;7.120;2023-01-13T06:19:39;8.30;77.90
13713;DHT22;6928;50.546;7.120;2023-01-13T06:22:10;8.40;77.65
13713;DHT22;6928;50.546;7.120;2023-01-13T06:24:38;8.34;78.23
13713;DHT22;6928;50.546;7.120;2023-01-13T06:27:06;8.30;78.35
13713;DHT22;6928;50.546;7.120;2023-01-13T06:29:33;8.38;77.87
13713;DHT22;6928;50.546;7.120;2023-01-13T06:32:04;8.31;78.61
13713;DHT22;6928;50.546;7.120;2023-01-13T06:34:33;8.36;78.61
13713;DHT22;6928;50.546;7.120;2023-01-13T06:37:02;8.31;78.64
13713;DHT22;6928;50.546;7.120;2023-01-13T06:39:30;8.31;78.56
13713;DHT22;6928;50.546;7.120;2023-01-13T06:41:57;8.37;78.53
13713;DHT22;6928;50.546;7.120;2023-01-13T06:44:43;8.36;78.59
13713;DHT22;6928;50.546;7.120;2023-01-13T06:47:11;8.34;78.68
13713;DHT22;6928;50.546;7.120;2023-01-13T06:49:38;8.40;78.62
13713;DHT22;6928;50.546;7.120;2023-01-13T06:52:05;8.40;78.88
13713;DHT22;6928;50.546;7.120;2023-01-13T06:54:31;8.50;78.55
13713;DHT22;6928;50.546;7.120;2023-01-13T06:56:59;8.50;78.73
13713;DHT22;6928;50.546;7.120;2023-01-13T06:59:26;8.50;78.61
13713;DHT22;6928;50.546;7.120;2023-01-13T07:01:53;8.45;78.94
13713;DHT22;6928;50.546;7.120;2023-01-13T07:04:21;8.48;78.80
13713;DHT22;6928;50.546;7.120;2023-01-13T07:06:47;8.54;79.03
13713;DHT22;6928;50.546;7.120;2023-01-13T07:09:14;8.54;78.94
13713;DHT22;6928;50.546;7.120;2023-01-13T07:11:41;8.50;78.79
13713;DHT22;6928;50.546;7.120;2023-01-13T07:14:08;8.47;79.18
13713;DHT22;6928;50.546;7.120;2023-01-13T07:16:52;8.55;78.82
13713;DHT22;6928;50.546;7.120;2023-01-13T07:19:20;8.50;78.60
13713;DHT22;6928;50.546;7.120;2023-01-13T07:21:49;8.55;78.56
13713;DHT22;6928;50.546;7.120;2023-01-13T07:24:16;8.54;78.84
13713;DHT22;6928;50.546;7.120;2023-01-13T07:26:43;8.68;78.74
13713;DHT22;6928;50.546;7.120;2023-01-13T07:29:10;8.52;79.24
13713;DHT22;6928;50.546;7.120;2023-01-13T07:31:37;8.61;79.40
13713;DHT22;6928;50.546;7.120;2023-01-13T07:34:04;8.58;79.09
13713;DHT22;6928;50.546;7.120;2023-01-13T07:36:33;8.67;78.34
13713;DHT22;6928;50.546;7.120;2023-01-13T07:39:00;8.72;77.44
13713;DHT22;6928;50.546;7.120;2023-01-13T07:41:27;8.84;77.68
13713;DHT22;6928;50.546;7.120;2023-01-13T07:44:11;8.78;77.49
13713;DHT22;6928;50.546;7.120;2023-01-13T07:46:38;8.82;78.02
13713;DHT22;6928;50.546;7.120;2023-01-13T07:49:06;8.78;77.16
13713;DHT22;6928;50.546;7.120;2023-01-13T07:51:36;8.79;77.22
13713;DHT22;6928;50.546;7.120;2023-01-13T07:54:04;8.84;77.41
13713;DHT22;6928;50.546;7.120;2023-01-13T07:56:31;8.87;77.43
13713;DHT22;6928;50.546;7.120;2023-01-13T07:58:59;8.87;77.85
13713;DHT22;6928;50.546;7.120;2023-01-13T08:01:26;8.93;76.26
13713;DHT22;6928;50.546;7.120;2023-01-13T08:03:53;8.92;76.00
13713;DHT22;6928;50.546;7.120;2023-01-13T08:06:23;9.02;75.88
13713;DHT22;6928;50.546;7.120;2023-01-13T08:08:51;8.93;75.25
13713;DHT22;6928;50.546;7.120;2023-01-13T08:11:18;8.93;74.94
13713;DHT22;6928;50.546;7.120;2023-01-13T08:13:44;8.91;74.28
13713;DHT22;6928;50.546;7.120;2023-01-13T08:16:13;8.92;73.62
13713;DHT22;6928;50.546;7.120;2023-01-13T08:18:41;8.93;73.55
13713;DHT22;6928;50.546;7.120;2023-01-13T08:21:10;8.95;73.13
13713;DHT22;6928;50.546;7.120;2023-01-13T08:23:37;8.89;73.12
13713;DHT22;6928;50.546;7.120;2023-01-13T08:26:08;8.85;73.43
13713;DHT22;6928;50.546;7.120;2023-01-13T08:28:36;8.91;72.50
13713;DHT22;6928;50.546;7.120;2023-01-13T08:31:07;8.88;72.36
13713;DHT22;6928;50.546;7.120;2023-01-13T08:33:34;8.91;72.54
13713;DHT22;6928;50.546;7.120;2023-01-13T08:36:03;8.89;72.15
13713;DHT22;6928;50.546;7.120;2023-01-13T08:38:30;8.98;71.45
13713;DHT22;6928;50.546;7.120;2023-01-13T08:40:57;8.96;71.78
13713;DHT22;6928;50.546;7.120;2023-01-13T08:43:26;8.96;71.79
13713;DHT22;6928;50.546;7.120;2023-01-13T08:45:59;8.98;72.05
13713;DHT22;6928;50.546;7.120;2023-01-13T08:48:26;8.93;72.55
13713;DHT22;6928;50.546;7.120;2023-01-13T08:51:01;8.99;71.80
13713;DHT22;6928;50.546;7.120;2023-01-13T08:53:28;9.03;71.58
13713;DHT22;6928;50.546;7.120;2023-01-13T08:55:55;9.03;70.88
13713;DHT22;6928;50.546;7.120;2023-01-13T08:58:22;9.03;71.69
13713;DHT22;6928;50.546;7.120;2023-01-13T09:00:50;9.05;71.94
13713;DHT22;6928;50.546;7.120;2023-01-13T09:03:17;9.09;71.27
13713;DHT22;6928;50.546;7.120;2023-01-13T09:05:44;9.09;71.56
13713;DHT22;6928;50.546;7.120;2023-01-13T09:08:11;9.10;71.50
13713;DHT22;6928;50.546;7.120;2023-01-13T09:10:38;9.10;71.78
13713;DHT22;6928;50.546;7.120;2023-01-13T09:13:07;9.15;72.51
13713;DHT22;6928;50.546;7.120;2023-01-13T09:15:40;9.18;71.96
13713;DHT22;6928;50.546;7.120;2023-01-13T09:18:09;9.13;71.76
13713;DHT22;6928;50.546;7.120;2023-01-13T09:20:36;9.12;72.44
13713;DHT22;6928;50.546;7.120;2023-01-13T09:23:03;9.16;72.50
13713;DHT22;6928;50.546;7.120;2023-01-13T09:25:30;9.15;72.62
13713;DHT22;6928;50.546;7.120;2023-01-13T09:27:59;9.23;72.63
13713;DHT22;6928;50.546;7.120;2023-01-13T09:30:26;9.13;72.66
13713;DHT22;6928;50.546;7.120;2023-01-13T09:32:53;9.24;71.14
13713;DHT22;6928;50.546;7.120;2023-01-13T09:35:44;9.33;71.15
13713;DHT22;6928;50.546;7.120;2023-01-13T09:38:09;9.34;70.99
13713;DHT22;6928;50.546;7.120;2023-01-13T09:40:37;9.39;71.54
13713;DHT22;6928;50.546;7.120;2023-01-13T09:43:16;9.48;70.44
13713;DHT22;6928;50.546;7.120;2023-01-13T09:46:06;9.47;70.84
13713;DHT22;6928;50.546;7.120;2023-01-13T09:48:56;9.60;69.88
13713;DHT22;6928;50.546;7.120;2023-01-13T09:51:30;9.68;69.44
13713;DHT22;6928;50.546;7.120;2023-01-13T09:54:04;9.71;69.21
13713;DHT22;6928;50.546;7.120;2023-01-13T09:56:32;9.61;69.51
13713;DHT22;6928;50.546;7.120;2023-01-13T09:58:59;9.67;69.29
13713;DHT22;6928;50.546;7.120;2023-01-13T10:01:31;9.75;69.72
13713;DHT22;6928;50.546;7.120;2023-01-13T10:04:02;9.88;69.28
13713;DHT22;6928;50.546;7.120;2023-01-13T10:06:35;9.88;68.98
13713;DHT22;6928;50.546;7.120;2023-01-13T10:09:03;9.85;68.78
13713;DHT22;6928;50.546;7.120;2023-01-13T10:11:34;10.06;68.88
13713;DHT22;6928;50.546;7.120;2023-01-13T10:14:23;10.08;68.56
13713;DHT22;6928;50.546;7.120;2023-01-13T10:17:05;10.08;67.81
13713;DHT22;6928;50.546;7.120;2023-01-13T10:19:42;10.19;67.76
13713;DHT22;6928;50.546;7.120;2023-01-13T10:22:33;10.18;67.53
13713;DHT22;6928;50.546;7.120;2023-01-13T10:25:19;10.12;67.35
13713;DHT22;6928;50.546;7.120;2023-01-13T10:27:48;10.18;67.21
13713;DHT22;6928;50.546;7.120;2023-01-13T10:30:20;10.26;67.24
13713;DHT22;6928;50.546;7.120;2023-01-13T10:32:53;10.36;67.54
13713;DHT22;6928;50.546;7.120;2023-01-13T10:35:56;10.50;67.03
13713;DHT22;6928;50.546;7.120;2023-01-13T10:38:29;10.39;66.99
13713;DHT22;6928;50.546;7.120;2023-01-13T10:40:58;10.53;66.20
13713;DHT22;6928;50.546;7.120;2023-01-13T10:43:26;10.36;67.11
13713;DHT22;6928;50.546;7.120;2023-01-13T10:46:01;10.47;67.24
13713;DHT22;6928;50.546;7.120;2023-01-13T10:48:35;10.44;66.48
13713;DHT22;6928;50.546;7.120;2023-01-13T10:51:18;10.66;66.40
13713;DHT22;6928;50.546;7.120;2023-01-13T10:53:56;10.68;65.95
13713;DHT22;6928;50.546;7.120;2023-01-13T10:56:26;10.78;65.71
13713;DHT22;6928;50.546;7.120;2023-01-13T10:59:11;10.84;64.87
13713;DHT22;6928;50.546;7.120;2023-01-13T11:01:41;10.91;64.86
13713;DHT22;6928;50.546;7.120;2023-01-13T11:04:30;11.05;64.88
13713;DHT22;6928;50.546;7.120;2023-01-13T11:06:58;11.02;64.49
13713;DHT22;6928;50.546;7.120;2023-01-13T11:09:26;10.97;64.81
13713;DHT22;6928;50.546;7.120;2023-01-13T11:11:56;10.73;65.53
13713;DHT22;6928;50.546;7.120;2023-01-13T11:14:30;10.43;67.44
13713;DHT22;6928;50.546;7.120;2023-01-13T11:17:13;10.33;67.96
13713;DHT22;6928;50.546;7.120;2023-01-13T11:19:47;10.66;66.67
13713;DHT22;6928;50.546;7.120;2023-01-13T11:22:20;10.80;65.89
13713;DHT22;6928;50.546;7.120;2023-01-13T11:24:54;10.84;66.01
13713;DHT22;6928;50.546;7.120;2023-01-13T11:27:34;11.11;64.56
13713;DHT22;6928;50.546;7.120;2023-01-13T11:30:11;10.88;66.15
13713;DHT22;6928;50.546;7.120;2023-01-13T11:33:04;10.76;64.41
13713;DHT22;6928;50.546;7.120;2023-01-13T11:35:40;10.95;64.34
13713;DHT22;6928;50.546;7.120;2023-01-13T11:38:12;10.76;63.92
13713;DHT22;6928;50.546;7.120;2023-01-13T11:40:45;10.59;64.42
13713;DHT22;6928;50.546;7.120;2023-01-13T11:43:20;10.87;64.34
13713;DHT22;6928;50.546;7.120;2023-01-13T11:45:50;11.08;64.35
13713;DHT22;6928;50.546;7.120;2023-01-13T11:48:22;11.32;63.95
13713;DHT22;6928;50.546;7.120;2023-01-13T11:50:58;11.20;63.00
13713;DHT22;6928;50.546;7.120;2023-01-13T11:53:45;11.20;62.89
13713;DHT22;6928;50.546;7.120;2023-01-13T11:56:36;10.91;63.38
13713;DHT22;6928;50.546;7.120;2023-01-13T12:02:42;11.05;64.24
13713;DHT22;6928;50.546;7.120;2023-01-13T12:05:18;10.88;64.73
13713;DHT22;6928;50.546;7.120;2023-01-13T12:07:57;10.61;65.79
13713;DHT22;6928;50.546;7.120;2023-01-13T12:10:38;10.55;67.52
13713;DHT22;6928;50.546;7.120;2023-01-13T12:13:20;10.39;67.04
13713;DHT22;6928;50.546;7.120;2023-01-13T12:16:13;10.50;66.56
13713;DHT22;6928;50.546;7.120;2023-01-13T12:19:12;10.56;67.27
13713;DHT22;6928;50.546;7.120;2023-01-13T12:22:02;10.63;66.77
13713;DHT22;6928;50.546;7.120;2023-01-13T12:24:36;10.91;66.05
13713;DHT22;6928;50.546;7.120;2023-01-13T12:27:11;10.97;65.53
13713;DHT22;6928;50.546;7.120;2023-01-13T12:29:40;11.01;65.21
13713;DHT22;6928;50.546;7.120;2023-01-13T12:32:12;10.87;64.54
13713;DHT22;6928;50.546;7.120;2023-01-13T12:35:02;11.04;64.53
13713;DHT22;6928;50.546;7.120;2023-01-13T12:37:36;11.20;63.92
13713;DHT22;6928;50.546;7.120;2023-01-13T12:40:36;10.92;63.68
13713;DHT22;6928;50.546;7.120;2023-01-13T12:43:15;10.80;64.61
13713;DHT22;6928;50.546;7.120;2023-01-13T12:46:51;10.63;64.31
13713;DHT22;6928;50.546;7.120;2023-01-13T12:49:29;10.68;64.72
13713;DHT22;6928;50.546;7.120;2023-01-13T12:52:17;11.04;66.84
13713;DHT22;6928;50.546;7.120;2023-01-13T12:55:21;10.59;66.26
13713;DHT22;6928;50.546;7.120;2023-01-13T12:58:12;10.41;66.46
13713;DHT22;6928;50.546;7.120;2023-01-13T13:00:57;10.51;66.25
13713;DHT22;6928;50.546;7.120;2023-01-13T13:03:33;10.61;65.07
13713;DHT22;6928;50.546;7.120;2023-01-13T13:06:15;10.59;65.33
13713;DHT22;6928;50.546;7.120;2023-01-13T13:08:59;10.33;65.67
13713;DHT22;6928;50.546;7.120;2023-01-13T13:11:40;10.33;65.95
13713;DHT22;6928;50.546;7.120;2023-01-13T13:14:59;10.41;66.41
13713;DHT22;6928;50.546;7.120;2023-01-13T13:17:40;10.43;66.33
13713;DHT22;6928;50.546;7.120;2023-01-13T13:20:54;10.32;67.26
13713;DHT22;6928;50.546;7.120;2023-01-13T13:23:44;10.26;67.82
13713;DHT22;6928;50.546;7.120;2023-01-13T13:26:22;10.23;67.76
13713;DHT22;6928;50.546;7.120;2023-01-13T13:32:26;10.37;68.26
13713;DHT22;6928;50.546;7.120;2023-01-13T13:35:13;10.26;68.42
13713;DHT22;6928;50.546;7.120;2023-01-13T13:37:57;10.34;68.34
13713;DHT22;6928;50.546;7.120;2023-01-13T13:40:45;10.39;68.79
13713;DHT22;6928;50.546;7.120;2023-01-13T13:43:36;10.30;68.32
13713;DHT22;6928;50.546;7.120;2023-01-13T13:46:26;10.30;68.57
13713;DHT22;6928;50.546;7.120;2023-01-13T13:49:12;10.18;69.56
13713;DHT22;6928;50.546;7.120;2023-01-13T13:51:44;10.15;69.57
13713;DHT22;6928;50.546;7.120;2023-01-13T13:54:18;10.22;70.16
13713;DHT22;6928;50.546;7.120;2023-01-13T13:56:47;10.19;68.81
13713;DHT22;6928;50.546;7.120;2023-01-13T13:59:18;10.26;68.78
13713;DHT22;6928;50.546;7.120;2023-01-13T14:01:52;10.23;68.66
13713;DHT22;6928;50.546;7.120;2023-01-13T14:04:26;10.16;68.95
13713;DHT22;6928;50.546;7.120;2023-01-13T14:06:56;10.15;68.01
13713;DHT22;6928;50.546;7.120;2023-01-13T14:09:37;10.12;68.20
13713;DHT22;6928;50.546;7.120;2023-01-13T14:12:17;10.03;68.57
13713;DHT22;6928;50.546;7.120;2023-01-13T14:14:45;10.05;68.45
13713;DHT22;6928;50.546;7.120;2023-01-13T14:17:23;10.03;68.61
13713;DHT22;6928;50.546;7.120;2023-01-13T14:19:53;10.02;68.38
13713;DHT22;6928;50.546;7.120;2023-01-13T14:22:21;10.05;68.59
13713;DHT22;6928;50.546;7.120;2023-01-13T14:24:49;10.03;68.17
13713;DHT22;6928;50.546;7.120;2023-01-13T14:27:21;10.06;67.92
13713;DHT22;6928;50.546;7.120;2023-01-13T14:29:51;10.08;68.18
13713;DHT22;6928;50.546;7.120;2023-01-13T14:32:21;10.03;67.99
13713;DHT22;6928;50.546;7.120;2023-01-13T14:34:50;10.02;68.05
13713;DHT22;6928;50.546;7.120;2023-01-13T14:37:32;9.99;68.36
13713;DHT22;6928;50.546;7.120;2023-01-13T14:40:05;9.98;67.96
13713;DHT22;6928;50.546;7.120;2023-01-13T14:42:32;9.97;68.47
13713;DHT22;6928;50.546;7.120;2023-01-13T14:45:00;9.91;68.50
13713;DHT22;6928;50.546;7.120;2023-01-13T14:47:28;9.95;68.77
13713;DHT22;6928;50.546;7.120;2023-01-13T14:50:01;9.92;68.94
13713;DHT22;6928;50.546;7.120;2023-01-13T14:52:30;9.87;68.56
13713;DHT22;6928;50.546;7.120;2023-01-13T14:55:23;9.87;68.79
13713;DHT22;6928;50.546;7.120;2023-01-13T14:57:52;9.81;69.05
13713;DHT22;6928;50.546;7.120;2023-01-13T15:00:23;9.81;70.05
13713;DHT22;6928;50.546;7.120;2023-01-13T15:03:05;9.77;70.53
13713;DHT22;6928;50.546;7.120;2023-01-13T15:05:42;9.72;71.19
13713;DHT22;6928;50.546;7.120;2023-01-13T15:08:30;9.68;72.00
13713;DHT22;6928;50.546;7.120;2023-01-13T15:11:02;9.60;71.80
13713;DHT22;6928;50.546;7.120;2023-01-13T15:13:37;9.54;73.06
13713;DHT22;6928;50.546;7.120;2023-01-13T15:16:13;9.47;73.75
13713;DHT22;6928;50.546;7.120;2023-01-13T15:18:40;9.46;74.02
13713;DHT22;6928;50.546;7.120;2023-01-13T15:21:07;9.43;74.06
13713;DHT22;6928;50.546;7.120;2023-01-13T15:23:34;9.48;72.80
13713;DHT22;6928;50.546;7.120;2023-01-13T15:26:02;9.54;72.19
13713;DHT22;6928;50.546;7.120;2023-01-13T15:28:29;9.51;72.22
13713;DHT22;6928;50.546;7.120;2023-01-13T15:30:57;9.51;72.46
13713;DHT22;6928;50.546;7.120;2023-01-13T15:33:26;9.48;72.50
13713;DHT22;6928;50.546;7.120;2023-01-13T15:35:53;9.48;72.08
13713;DHT22;6928;50.546;7.120;2023-01-13T15:38:22;9.51;71.83
13713;DHT22;6928;50.546;7.120;2023-01-13T15:40:51;9.47;72.18
13713;DHT22;6928;50.546;7.120;2023-01-13T15:43:20;9.44;72.22
13713;DHT22;6928;50.546;7.120;2023-01-13T15:46:11;9.44;72.14
13713;DHT22;6928;50.546;7.120;2023-01-13T15:49:04;9.39;72.24
13713;DHT22;6928;50.546;7.120;2023-01-13T15:51:35;9.39;72.18
13713;DHT22;6928;50.546;7.120;2023-01-13T15:54:03;9.31;72.75
13713;DHT22;6928;50.546;7.120;2023-01-13T15:56:30;9.39;72.27
13713;DHT22;6928;50.546;7.120;2023-01-13T15:59:02;9.36;72.48
13713;DHT22;6928;50.546;7.120;2023-01-13T16:01:29;9.36;72.27
13713;DHT22;6928;50.546;7.120;2023-01-13T16:03:55;9.33;72.48
13713;DHT22;6928;50.546;7.120;2023-01-13T16:06:28;9.30;72.52
13713;DHT22;6928;50.546;7.120;2023-01-13T16:08:57;9.33;72.36
13713;DHT22;6928;50.546;7.120;2023-01-13T16:11:24;9.34;72.39
13713;DHT22;6928;50.546;7.120;2023-01-13T16:13:50;9.26;72.76
13713;DHT22;6928;50.546;7.120;2023-01-13T16:16:21;9.24;73.03
13713;DHT22;6928;50.546;7.120;2023-01-13T16:18:49;9.16;73.10
13713;DHT22;6928;50.546;7.120;2023-01-13T16:21:17;9.18;73.10
13713;DHT22;6928;50.546;7.120;2023-01-13T16:23:45;9.16;73.50
13713;DHT22;6928;50.546;7.120;2023-01-13T16:26:18;9.30;73.89
13713;DHT22;6928;50.546;7.120;2023-01-13T16:28:46;9.16;73.34
13713;DHT22;6928;50.546;7.120;2023-01-13T16:31:20;9.19;73.40
13713;DHT22;6928;50.546;7.120;2023-01-13T16:33:48;9.19;73.37
13713;DHT22;6928;50.546;7.120;2023-01-13T16:36:15;9.13;73.29
13713;DHT22;6928;50.546;7.120;2023-01-13T16:38:44;9.09;73.29
13713;DHT22;6928;50.546;7.120;2023-01-13T16:41:11;9.10;73.33
13713;DHT22;6928;50.546;7.120;2023-01-13T16:43:38;9.08;73.37